Time;durP1;ratioP1;P1;durP2;ratioP2;P2;SDS_P1;SDS_P2;PMS_P1;PMS_P2;Temp;Humidity;BMP_temperature;BMP_pressure;BME280_temperature;BME280_humidity;BME280_pressure;Samples;Min_cycle;Max_cycle;Signal;HPM_P1;HPM_P2
2021/12/08 00:02:25;;;;;;;2.30;2.20;;;5.80;39.30;;;;;;21284;6680;66808;-88
2021/12/08 00:04:49;;;;;;;2.17;2.07;;;5.80;40.00;;;;;;21007;6695;334493;-88
2021/12/08 00:07:15;;;;;;;2.47;1.60;;;5.90;38.40;;;;;;21014;6695;273388;-89
2021/12/08 00:10:00;;;;;;;2.50;1.80;;;6.10;37.10;;;;;;21056;6680;293073;-89
2021/12/08 00:14:58;;;;;;;4.10;2.00;;;6.30;37.70;;;;;;21271;6680;66993;-88
2021/12/08 00:17:24;;;;;;;1.83;1.73;;;6.00;38.60;;;;;;20998;6695;302431;-89
2021/12/08 00:19:50;;;;;;;2.22;2.12;;;6.00;38.70;;;;;;21269;6680;66947;-89
2021/12/08 00:22:16;;;;;;;3.30;2.90;;;6.00;38.70;;;;;;21005;6693;302914;-89
2021/12/08 00:24:41;;;;;;;2.08;1.80;;;6.10;38.30;;;;;;21273;6679;66734;-89
2021/12/08 00:27:07;;;;;;;3.67;1.90;;;6.00;38.80;;;;;;21249;6694;66447;-89
2021/12/08 00:29:33;;;;;;;5.20;2.10;;;5.60;40.30;;;;;;21293;6680;66438;-89
2021/12/08 00:31:59;;;;;;;4.17;2.27;;;5.60;40.30;;;;;;21224;6695;67021;-89
2021/12/08 00:34:24;;;;;;;2.53;2.40;;;5.40;41.10;;;;;;21055;6680;285749;-88
2021/12/08 00:36:54;;;;;;;2.17;1.98;;;5.40;43.80;;;;;;21225;6695;70820;-88
2021/12/08 00:39:15;;;;;;;2.10;2.00;;;5.40;43.90;;;;;;21258;6680;66918;-89
2021/12/08 00:41:41;;;;;;;2.22;2.03;;;5.20;44.30;;;;;;21002;6695;330661;-88
2021/12/08 00:44:06;;;;;;;3.77;2.27;;;5.30;45.40;;;;;;21278;6680;66883;-90
2021/12/08 00:46:32;;;;;;;3.37;3.05;;;5.20;45.20;;;;;;20998;6695;330804;-88
2021/12/08 00:48:58;;;;;;;2.73;2.53;;;5.50;47.40;;;;;;21002;6695;335411;-89
2021/12/08 00:51:24;;;;;;;2.30;2.13;;;5.60;47.50;;;;;;21272;6680;66433;-90
2021/12/08 00:53:49;;;;;;;3.30;2.20;;;5.50;47.20;;;;;;21221;6695;66989;-87
2021/12/08 00:56:15;;;;;;;2.17;2.08;;;5.20;47.50;;;;;;21275;6680;66375;-87
2021/12/08 00:58:40;;;;;;;1.90;1.77;;;4.90;48.00;;;;;;21222;6695;69643;-87
2021/12/08 01:01:08;;;;;;;2.42;2.03;;;4.60;48.70;;;;;;21271;6680;66889;-89
2021/12/08 01:03:32;;;;;;;3.37;2.27;;;4.60;48.70;;;;;;21219;6695;66886;-87
2021/12/08 01:05:58;;;;;;;2.85;2.65;;;4.50;49.00;;;;;;21273;6680;68367;-87
2021/12/08 01:08:24;;;;;;;2.50;2.40;;;4.60;50.60;;;;;;21024;6695;331491;-86
2021/12/08 01:10:50;;;;;;;3.13;2.60;;;4.60;50.60;;;;;;21119;6680;272163;-90
2021/12/08 01:13:15;;;;;;;4.05;2.92;;;4.90;50.90;;;;;;21007;6695;278172;-90
2021/12/08 01:15:41;;;;;;;2.63;2.37;;;5.30;50.40;;;;;;21281;6680;66868;-87
2021/12/08 01:18:06;;;;;;;2.47;2.27;;;5.20;50.70;;;;;;21220;6695;67350;-87
2021/12/08 01:20:32;;;;;;;3.40;2.47;;;5.00;50.30;;;;;;21053;6680;272352;-89
2021/12/08 01:22:58;;;;;;;4.80;3.60;;;5.10;50.70;;;;;;21199;6695;73172;-87
2021/12/08 01:25:24;;;;;;;2.78;2.30;;;5.10;50.90;;;;;;21028;6680;284411;-86
2021/12/08 01:27:49;;;;;;;2.60;2.30;;;5.10;50.70;;;;;;21008;6695;290996;-86
2021/12/08 01:30:15;;;;;;;3.83;2.33;;;5.40;50.20;;;;;;21271;6680;66830;-86
2021/12/08 01:32:40;;;;;;;7.87;2.90;;;5.30;49.90;;;;;;21000;6695;323053;-88
2021/12/08 01:35:06;;;;;;;2.22;1.98;;;5.30;50.00;;;;;;21273;6678;66870;-86
2021/12/08 01:37:32;;;;;;;3.23;2.47;;;5.30;50.00;;;;;;21212;6694;67020;-86
2021/12/08 01:39:57;;;;;;;2.42;2.22;;;5.00;50.30;;;;;;21283;6680;66932;-86
2021/12/08 01:42:31;;;;;;;3.35;2.40;;;4.80;50.80;;;;;;21008;6695;335775;-88
2021/12/08 01:47:30;;;;;;;2.10;1.90;;;4.90;52.30;;;;;;20396;6695;66536;-86
2021/12/08 01:49:55;;;;;;;2.90;2.60;;;4.80;52.60;;;;;;21284;6680;66360;-86
2021/12/08 01:52:21;;;;;;;2.90;2.70;;;4.70;53.00;;;;;;21012;6695;331669;-86
2021/12/08 01:54:47;;;;;;;3.20;2.90;;;5.20;53.50;;;;;;21007;6695;277747;-89
2021/12/08 01:57:13;;;;;;;3.10;2.80;;;5.20;54.10;;;;;;21054;6680;276178;-88
2021/12/08 01:59:38;;;;;;;1.90;1.80;;;5.60;53.70;;;;;;21270;6680;66860;-86
2021/12/08 02:02:05;;;;;;;2.63;2.33;;;5.50;53.90;;;;;;21003;6695;331945;-86
2021/12/08 02:04:30;;;;;;;2.23;2.00;;;5.50;53.90;;;;;;21061;6680;302199;-86
2021/12/08 02:06:57;;;;;;;2.30;2.20;;;5.80;54.20;;;;;;21015;6695;281195;-89
2021/12/08 02:09:21;;;;;;;2.43;2.23;;;6.00;53.80;;;;;;21064;6680;303095;-89
2021/12/08 02:11:52;;;;;;;2.57;2.33;;;6.30;52.40;;;;;;21061;6680;301837;-91
2021/12/08 02:14:13;;;;;;;2.23;2.03;;;6.30;52.40;;;;;;20994;6695;273355;-86
2021/12/08 02:16:39;;;;;;;2.35;2.15;;;6.40;52.10;;;;;;21276;6680;66860;-88
2021/12/08 02:19:04;;;;;;;2.40;2.20;;;6.20;52.20;;;;;;21013;6695;302892;-86
2021/12/08 02:21:30;;;;;;;2.22;2.08;;;6.10;52.70;;;;;;21043;6680;329057;-86
2021/12/08 02:23:55;;;;;;;2.27;2.03;;;6.30;52.90;;;;;;21016;6695;272893;-86
2021/12/08 02:26:21;;;;;;;1.98;1.87;;;6.40;52.80;;;;;;21112;6680;300756;-90
2021/12/08 02:28:47;;;;;;;2.30;2.10;;;6.50;52.60;;;;;;21278;6695;67138;-90
2021/12/08 02:31:15;;;;;;;1.73;1.62;;;6.30;52.70;;;;;;21276;6680;66377;-90
2021/12/08 02:50:11;;;;;;;2.30;2.10;;;6.30;52.80;;;;;;21233;6694;70641;-86
2021/12/08 02:52:36;;;;;;;2.80;2.60;;;5.80;53.40;;;;;;21061;6680;272750;-86
2021/12/08 03:19:44;;;;;;;2.57;2.47;;;4.40;57.50;;;;;;21681;6547;238665;-86
2021/12/08 03:22:11;;;;;;;3.05;2.85;;;4.30;57.60;;;;;;21382;6574;298658;-89
2021/12/08 03:24:39;;;;;;;2.70;2.50;;;4.70;58.00;;;;;;21370;6645;66530;-86
2021/12/08 03:29:37;;;;;;;3.00;2.80;;;4.70;58.10;;;;;;21152;6645;301523;-89
2021/12/08 03:32:04;;;;;;;2.70;2.50;;;4.90;59.10;;;;;;21403;6630;66623;-86
2021/12/08 03:34:24;;;;;;;2.07;1.97;;;5.10;58.60;;;;;;21403;6630;66672;-88
2021/12/08 03:36:47;;;;;;;2.42;2.33;;;5.00;58.60;;;;;;21420;6630;66688;-86
2021/12/08 03:39:13;;;;;;;3.00;2.80;;;4.90;58.80;;;;;;21213;6630;316678;-85
2021/12/08 03:41:38;;;;;;;2.90;2.70;;;5.00;58.50;;;;;;21223;6630;271486;-88
2021/12/08 03:44:04;;;;;;;4.87;4.55;;;5.40;58.10;;;;;;21493;6630;66634;-86
2021/12/08 03:46:31;;;;;;;3.10;2.80;;;5.40;57.50;;;;;;21155;6647;277235;-88
2021/12/08 03:48:57;;;;;;;3.17;2.80;;;5.60;57.40;;;;;;21396;6637;67076;-86
2021/12/08 03:51:21;;;;;;;3.58;3.00;;;5.50;57.00;;;;;;21417;6630;66701;-88
2021/12/08 03:53:46;;;;;;;3.63;3.43;;;5.30;57.40;;;;;;21155;6645;330541;-86
2021/12/08 03:56:12;;;;;;;3.87;3.67;;;5.70;57.30;;;;;;21203;6630;272325;-85
2021/12/08 03:58:38;;;;;;;3.43;3.20;;;5.70;57.20;;;;;;21425;6630;68491;-86
2021/12/08 04:01:03;;;;;;;3.20;3.00;;;5.60;56.80;;;;;;21420;6630;66199;-86
2021/12/08 04:03:31;;;;;;;3.93;3.53;;;5.40;57.10;;;;;;21197;6630;273960;-87
2021/12/08 04:05:57;;;;;;;3.28;3.08;;;5.50;57.50;;;;;;21413;6630;67267;-86
2021/12/08 04:08:29;;;;;;;2.50;2.40;;;5.40;57.10;;;;;;21444;6630;66146;-89
2021/12/08 04:10:46;;;;;;;3.30;3.00;;;5.20;57.30;;;;;;21193;6630;272349;-86
2021/12/08 04:13:11;;;;;;;3.00;2.80;;;5.40;57.80;;;;;;21208;6630;279909;-85
2021/12/08 04:15:37;;;;;;;3.55;3.10;;;5.60;57.40;;;;;;21229;6630;317954;-88
2021/12/08 04:18:02;;;;;;;2.72;2.22;;;5.90;56.70;;;;;;21450;6630;67194;-89
2021/12/08 04:20:28;;;;;;;2.40;2.17;;;5.80;56.50;;;;;;21421;6630;73346;-87
2021/12/08 04:22:53;;;;;;;2.80;2.60;;;5.50;57.00;;;;;;21190;6630;300133;-87
2021/12/08 04:25:19;;;;;;;2.60;2.40;;;5.60;57.90;;;;;;21191;6630;336705;-86
2021/12/08 04:27:44;;;;;;;3.70;3.40;;;5.80;57.70;;;;;;21414;6630;66722;-86
2021/12/08 04:30:14;;;;;;;4.33;4.00;;;5.80;57.40;;;;;;21213;6629;271771;-85
2021/12/08 04:32:39;;;;;;;5.32;4.93;;;5.80;57.00;;;;;;21199;6630;301138;-87
2021/12/08 04:35:07;;;;;;;3.92;3.72;;;5.90;56.80;;;;;;21428;6630;66168;-87
2021/12/08 04:37:31;;;;;;;5.00;4.60;;;5.80;56.00;;;;;;21137;6647;331018;-85
2021/12/08 04:42:33;;;;;;;3.87;3.58;;;5.60;56.40;;;;;;21378;6630;67940;-86
2021/12/08 04:44:54;;;;;;;4.68;4.28;;;5.30;57.20;;;;;;21167;6630;300830;-87
2021/12/08 04:47:35;;;;;;;3.63;3.43;;;5.40;58.40;;;;;;21351;6645;67854;-85
2021/12/08 04:52:58;;;;;;;3.70;3.40;;;5.20;58.70;;;;;;21433;6630;67148;-88
2021/12/08 05:06:20;;;;;;;3.10;2.90;;;4.60;60.30;;;;;;21415;6630;67831;-87
2021/12/08 05:08:40;;;;;;;2.92;2.78;;;4.70;60.70;;;;;;21357;6630;67161;-85
2021/12/08 05:10:55;;;;;;;3.97;3.77;;;4.70;60.90;;;;;;21169;6630;333427;-85
2021/12/08 05:13:20;;;;;;;6.10;5.00;;;4.90;61.80;;;;;;21198;6630;300864;-86
2021/12/08 05:15:46;;;;;;;5.10;4.80;;;5.30;61.30;;;;;;21239;6630;300006;-87
2021/12/08 05:18:18;;;;;;;4.20;4.00;;;5.70;60.20;;;;;;21418;6630;66569;-85
2021/12/08 05:20:55;;;;;;;4.45;4.15;;;5.70;59.60;;;;;;21223;6630;270406;-86
2021/12/08 05:23:28;;;;;;;3.97;3.67;;;5.80;59.70;;;;;;21406;6634;70358;-88
2021/12/08 05:25:51;;;;;;;4.03;3.72;;;5.80;59.50;;;;;;21202;6630;329670;-85
2021/12/08 05:28:17;;;;;;;3.75;3.55;;;5.90;59.70;;;;;;21455;6630;66280;-85
2021/12/08 05:30:43;;;;;;;3.50;3.30;;;5.80;59.40;;;;;;21434;6630;68652;-84
2021/12/08 05:33:08;;;;;;;4.03;3.75;;;5.60;59.80;;;;;;21249;6630;274602;-86
2021/12/08 05:35:34;;;;;;;4.10;3.80;;;5.70;60.20;;;;;;21216;6630;285656;-86
2021/12/08 05:37:59;;;;;;;3.55;3.35;;;6.00;59.60;;;;;;21224;6630;334452;-85
2021/12/08 05:40:32;;;;;;;3.10;2.90;;;6.30;58.90;;;;;;21238;6628;296929;-85
2021/12/08 05:42:57;;;;;;;3.50;3.20;;;6.50;58.20;;;;;;21152;6644;300573;-86
2021/12/08 05:45:23;;;;;;;3.55;3.25;;;6.70;57.70;;;;;;21234;6630;302854;-87
2021/12/08 05:47:49;;;;;;;3.10;2.90;;;6.60;57.50;;;;;;21463;6630;66645;-86
2021/12/08 05:50:15;;;;;;;3.33;3.03;;;6.50;57.50;;;;;;21232;6630;300478;-85
2021/12/08 05:52:40;;;;;;;3.10;2.90;;;6.50;58.10;;;;;;21459;6630;66644;-87
2021/12/08 05:55:06;;;;;;;3.30;3.00;;;6.40;58.30;;;;;;21480;6630;66168;-85
2021/12/08 05:57:32;;;;;;;4.50;4.10;;;6.10;58.90;;;;;;21240;6632;332113;-85
2021/12/08 05:59:57;;;;;;;4.10;3.90;;;6.10;59.10;;;;;;21214;6630;304153;-86
2021/12/08 06:02:26;;;;;;;3.40;3.20;;;6.40;58.70;;;;;;21435;6630;66824;-89
2021/12/08 06:04:51;;;;;;;3.80;3.60;;;6.30;58.40;;;;;;21239;6630;271120;-85
2021/12/08 06:07:21;;;;;;;4.23;3.93;;;6.30;58.60;;;;;;21255;6630;300823;-86
2021/12/08 06:09:42;;;;;;;4.78;4.47;;;6.50;58.20;;;;;;21419;6630;66662;-86
2021/12/08 06:12:08;;;;;;;4.45;4.15;;;6.40;58.00;;;;;;21460;6630;66529;-86
2021/12/08 06:14:34;;;;;;;3.80;3.60;;;5.80;59.20;;;;;;21380;6647;68539;-86
2021/12/08 06:17:09;;;;;;;4.47;4.17;;;5.80;59.10;;;;;;21237;6637;299996;-86
2021/12/08 06:19:36;;;;;;;3.70;3.40;;;5.90;59.90;;;;;;21449;6630;69951;-87
2021/12/08 06:22:01;;;;;;;3.60;3.40;;;5.90;59.70;;;;;;21422;6630;74503;-89
2021/12/08 06:24:26;;;;;;;133.98;11.30;;;5.70;60.00;;;;;;21165;6645;313449;-86
2021/12/08 06:26:52;;;;;;;427.77;19.85;;;5.90;60.50;;;;;;21433;6630;66126;-87
2021/12/08 06:29:18;;;;;;;46.90;8.97;;;5.80;59.90;;;;;;21199;6630;333219;-87
2021/12/08 06:31:43;;;;;;;5.97;5.57;;;5.90;59.70;;;;;;21424;6630;66675;-88
2021/12/08 06:34:08;;;;;;;9.05;8.07;;;5.80;59.40;;;;;;21401;6630;67022;-88
2021/12/08 06:36:40;;;;;;;13.45;12.05;;;5.70;60.00;;;;;;21168;6630;323048;-87
2021/12/08 06:39:05;;;;;;;5.23;4.83;;;5.70;60.30;;;;;;21373;6645;66278;-86
2021/12/08 06:41:34;;;;;;;5.27;4.90;;;5.80;60.20;;;;;;21360;6645;70503;-86
2021/12/08 06:43:59;;;;;;;4.63;4.33;;;5.60;60.50;;;;;;21403;6634;88123;-86
2021/12/08 06:46:25;;;;;;;5.70;5.30;;;5.50;60.90;;;;;;21191;6630;304882;-86
2021/12/08 06:48:58;;;;;;;5.18;4.78;;;5.60;61.00;;;;;;21436;6630;67163;-86
2021/12/08 06:51:26;;;;;;;6.70;6.10;;;5.70;60.50;;;;;;21238;6630;301372;-86
2021/12/08 06:53:52;;;;;;;5.37;5.07;;;5.80;60.30;;;;;;21408;6628;66348;-86
2021/12/08 06:56:20;;;;;;;5.57;5.10;;;5.80;60.00;;;;;;21423;6630;67501;-84
2021/12/08 06:58:47;;;;;;;5.90;5.40;;;5.70;60.40;;;;;;21387;6632;67590;-85
2021/12/08 07:01:30;;;;;;;6.93;6.50;;;5.50;60.80;;;;;;21197;6630;300907;-87
2021/12/08 07:04:11;;;;;;;7.00;6.60;;;6.00;60.10;;;;;;21143;6634;304624;-85
2021/12/08 07:06:42;;;;;;;6.60;6.00;;;6.00;60.10;;;;;;21402;6630;66695;-84
2021/12/08 07:08:54;;;;;;;6.90;6.40;;;5.90;59.60;;;;;;21151;6630;305130;-86
2021/12/08 07:11:20;;;;;;;6.45;6.03;;;6.00;59.80;;;;;;21201;6630;276150;-88
2021/12/08 07:13:46;;;;;;;4.50;4.20;;;6.30;59.00;;;;;;21202;6630;283875;-85
2021/12/08 07:16:11;;;;;;;4.77;4.37;;;6.50;59.50;;;;;;21431;6630;67070;-84
2021/12/08 07:18:43;;;;;;;4.40;4.10;;;6.50;59.60;;;;;;21363;6647;67311;-87
2021/12/08 07:21:06;;;;;;;4.47;4.17;;;6.30;60.20;;;;;;21396;6637;70717;-86
2021/12/08 07:23:36;;;;;;;4.80;4.50;;;6.10;61.50;;;;;;21427;6630;67509;-85
2021/12/08 07:25:57;;;;;;;4.60;4.30;;;6.00;61.40;;;;;;21400;6630;71276;-85
2021/12/08 07:28:24;;;;;;;5.43;5.12;;;6.20;62.30;;;;;;21215;6630;271456;-86
2021/12/08 07:30:57;;;;;;;4.30;4.00;;;6.30;61.40;;;;;;21427;6630;66661;-84
2021/12/08 07:33:22;;;;;;;4.57;4.30;;;6.30;61.40;;;;;;21240;6634;303626;-87
2021/12/08 07:35:48;;;;;;;5.43;5.10;;;6.50;62.40;;;;;;21193;6630;301821;-85
2021/12/08 07:38:13;;;;;;;4.15;3.95;;;6.90;62.50;;;;;;21409;6630;66839;-85
2021/12/08 07:40:40;;;;;;;4.60;4.20;;;6.90;61.60;;;;;;21185;6630;301760;-85
2021/12/08 07:43:04;;;;;;;3.83;3.58;;;7.00;61.80;;;;;;21395;6630;66171;-85
2021/12/08 07:45:33;;;;;;;9.40;8.70;;;7.00;61.60;;;;;;21211;6630;271916;-85
2021/12/08 07:47:58;;;;;;;7.70;7.20;;;7.10;62.00;;;;;;21201;6630;329609;-86
2021/12/08 07:50:30;;;;;;;8.00;7.33;;;7.40;61.60;;;;;;21419;6630;70117;-85
2021/12/08 07:52:56;;;;;;;7.18;6.70;;;7.40;61.00;;;;;;21188;6630;301801;-85
2021/12/08 07:55:24;;;;;;;6.30;5.80;;;7.50;61.30;;;;;;21421;6630;70706;-84
2021/12/08 07:57:50;;;;;;;7.95;7.45;;;7.40;61.30;;;;;;21178;6634;304710;-85
2021/12/08 08:00:16;;;;;;;5.70;5.40;;;7.50;61.10;;;;;;21415;6630;66218;-84
2021/12/08 08:02:41;;;;;;;7.10;6.60;;;7.30;60.60;;;;;;21116;6647;302745;-85
2021/12/08 08:05:09;;;;;;;7.07;6.57;;;7.40;61.40;;;;;;21102;6635;299942;-87
2021/12/08 08:07:32;;;;;;;6.10;5.70;;;7.70;61.10;;;;;;21247;6630;275182;-86
2021/12/08 08:10:00;;;;;;;4.47;4.18;;;7.90;60.50;;;;;;21194;6630;311604;-85
2021/12/08 08:12:24;;;;;;;4.70;4.30;;;8.10;57.90;;;;;;21412;6630;66974;-86
2021/12/08 08:14:51;;;;;;;4.37;4.17;;;7.90;57.90;;;;;;21194;6630;300534;-85
2021/12/08 08:17:15;;;;;;;4.03;3.83;;;7.70;57.30;;;;;;21380;6630;66285;-84
2021/12/08 08:19:44;;;;;;;4.90;4.60;;;7.60;58.10;;;;;;21179;6630;301354;-85
2021/12/08 08:22:06;;;;;;;4.32;4.12;;;7.60;59.30;;;;;;21397;6630;66180;-89
2021/12/08 08:24:32;;;;;;;3.90;3.62;;;7.30;59.80;;;;;;21417;6630;66684;-87
2021/12/08 08:26:58;;;;;;;4.57;4.17;;;7.20;59.70;;;;;;21446;6630;67196;-86
2021/12/08 08:29:23;;;;;;;5.22;4.93;;;7.10;60.50;;;;;;21189;6634;300380;-89
2021/12/08 08:31:59;;;;;;;4.60;4.30;;;7.20;61.30;;;;;;21210;6630;271990;-86
2021/12/08 08:34:27;;;;;;;4.47;4.27;;;7.50;61.20;;;;;;21127;6645;301533;-85
2021/12/08 08:36:53;;;;;;;4.43;4.12;;;7.90;60.70;;;;;;21191;6630;329066;-85
2021/12/08 08:39:19;;;;;;;4.10;3.90;;;8.10;60.10;;;;;;21191;6630;301682;-87
2021/12/08 08:41:47;;;;;;;4.55;4.22;;;8.30;59.10;;;;;;21409;6630;66691;-89
2021/12/08 08:44:16;;;;;;;4.20;3.90;;;8.10;58.90;;;;;;21419;6630;66611;-86
2021/12/08 08:46:42;;;;;;;13.57;12.67;;;7.70;59.20;;;;;;21398;6632;70697;-85
2021/12/08 08:49:07;;;;;;;5.30;5.00;;;7.40;59.70;;;;;;21485;6630;67128;-86
2021/12/08 08:51:46;;;;;;;4.22;4.03;;;7.10;60.60;;;;;;21095;6645;329342;-86
2021/12/08 08:54:13;;;;;;;4.13;3.77;;;7.20;61.00;;;;;;21396;6630;67227;-86
2021/12/08 08:56:37;;;;;;;3.40;3.20;;;7.20;61.00;;;;;;21420;6630;66662;-86
2021/12/08 08:59:06;;;;;;;4.53;4.32;;;7.10;61.40;;;;;;21408;6630;66192;-89
2021/12/08 09:01:31;;;;;;;4.63;4.23;;;7.00;61.60;;;;;;21409;6630;70976;-89
2021/12/08 09:04:00;;;;;;;3.80;3.60;;;6.90;61.80;;;;;;21417;6630;71606;-86
2021/12/08 09:06:26;;;;;;;4.07;3.78;;;6.80;62.10;;;;;;21122;6645;302184;-86
2021/12/08 09:08:52;;;;;;;3.75;3.45;;;7.00;61.10;;;;;;21406;6630;70772;-89
2021/12/08 09:11:18;;;;;;;3.73;3.53;;;7.00;61.60;;;;;;21419;6630;69661;-87
2021/12/08 09:13:46;;;;;;;3.90;3.70;;;7.00;61.80;;;;;;21407;6634;66157;-87
2021/12/08 09:16:14;;;;;;;4.27;3.97;;;6.90;62.20;;;;;;21216;6629;271321;-87
2021/12/08 09:18:46;;;;;;;4.00;3.80;;;7.10;62.20;;;;;;21201;6630;301246;-89
2021/12/08 09:21:16;;;;;;;4.10;3.80;;;7.40;61.60;;;;;;21416;6633;66822;-87
2021/12/08 09:23:38;;;;;;;3.90;3.70;;;7.50;61.20;;;;;;21263;6630;297752;-87
2021/12/08 09:26:03;;;;;;;4.10;3.90;;;7.70;61.40;;;;;;21197;6630;301279;-85
2021/12/08 09:28:30;;;;;;;3.90;3.60;;;7.90;60.20;;;;;;21433;6630;72536;-85
2021/12/08 09:30:56;;;;;;;4.20;4.00;;;7.90;60.00;;;;;;21218;6630;281804;-85
2021/12/08 09:33:20;;;;;;;3.83;3.63;;;8.00;59.70;;;;;;21185;6630;301705;-85
2021/12/08 09:35:55;;;;;;;3.60;3.40;;;8.10;59.10;;;;;;21408;6630;69721;-85
2021/12/08 09:38:21;;;;;;;3.40;3.20;;;8.10;59.20;;;;;;21398;6630;67276;-85
2021/12/08 09:40:59;;;;;;;4.10;3.90;;;7.80;59.80;;;;;;21179;6634;273549;-85
2021/12/08 09:43:23;;;;;;;3.72;3.53;;;8.10;60.10;;;;;;21179;6630;301306;-84
2021/12/08 09:45:51;;;;;;;4.00;3.70;;;8.10;60.00;;;;;;21406;6630;67229;-85
2021/12/08 09:48:17;;;;;;;3.80;3.60;;;8.00;59.60;;;;;;21399;6634;67126;-85
2021/12/08 09:50:42;;;;;;;3.33;3.13;;;7.80;60.00;;;;;;21427;6630;70883;-85
2021/12/08 09:53:09;;;;;;;3.80;3.60;;;7.40;61.10;;;;;;21434;6630;70863;-86
2021/12/08 09:55:35;;;;;;;3.83;3.63;;;7.40;60.90;;;;;;21207;6630;290146;-88
2021/12/08 09:58:00;;;;;;;4.90;4.50;;;7.50;61.00;;;;;;21204;6630;302178;-86
2021/12/08 10:00:30;;;;;;;4.40;4.10;;;7.80;60.20;;;;;;21367;6646;66277;-85
2021/12/08 10:02:58;;;;;;;4.40;4.10;;;7.80;59.80;;;;;;21291;6630;66710;-84
2021/12/08 10:05:20;;;;;;;5.25;4.95;;;7.60;60.10;;;;;;21185;6645;299946;-83
2021/12/08 10:07:47;;;;;;;5.00;4.70;;;7.70;60.40;;;;;;21394;6645;66840;-89
2021/12/08 10:10:12;;;;;;;4.37;4.10;;;7.60;59.80;;;;;;21421;6630;66654;-82
2021/12/08 10:12:38;;;;;;;3.90;3.70;;;7.50;60.20;;;;;;21419;6630;66766;-84
2021/12/08 10:15:04;;;;;;;4.32;3.95;;;7.20;61.00;;;;;;21409;6630;66751;-85
2021/12/08 10:17:30;;;;;;;5.00;4.70;;;7.30;61.00;;;;;;21131;6647;276976;-87
2021/12/08 10:20:10;;;;;;;5.12;4.82;;;7.30;60.90;;;;;;21186;6637;304459;-85
2021/12/08 10:22:34;;;;;;;4.80;4.50;;;7.70;60.00;;;;;;21190;6630;299586;-87
2021/12/08 10:25:00;;;;;;;5.32;5.03;;;7.90;59.50;;;;;;21199;6630;329140;-85
2021/12/08 10:27:25;;;;;;;5.20;4.85;;;8.20;58.70;;;;;;21353;6644;70511;-85
2021/12/08 10:29:52;;;;;;;5.83;5.53;;;8.10;59.20;;;;;;21214;6630;271924;-86
2021/12/08 10:32:17;;;;;;;6.10;5.70;;;8.10;59.20;;;;;;21150;6645;334075;-85
2021/12/08 10:34:53;;;;;;;4.78;4.50;;;8.40;57.90;;;;;;21188;6630;275794;-84
2021/12/08 10:37:10;;;;;;;4.80;4.50;;;8.40;57.90;;;;;;21346;6645;72596;-84
2021/12/08 10:39:35;;;;;;;3.85;3.65;;;8.30;58.00;;;;;;21404;6630;66609;-86
2021/12/08 10:42:09;;;;;;;4.53;4.23;;;8.00;58.60;;;;;;21211;6630;300698;-86
2021/12/08 10:45:08;;;;;;;4.43;4.22;;;8.00;59.10;;;;;;21192;6634;275729;-86
2021/12/08 10:47:35;;;;;;;4.70;4.43;;;8.20;58.40;;;;;;21182;6630;304740;-87
2021/12/08 10:55:23;;;;;;;4.85;4.57;;;8.70;56.80;;;;;;21203;6630;329960;-85
2021/12/08 10:57:50;;;;;;;5.10;4.80;;;8.80;56.00;;;;;;21201;6630;273265;-85
2021/12/08 11:00:21;;;;;;;4.90;4.60;;;8.80;56.00;;;;;;21192;6630;328660;-87
2021/12/08 11:02:56;;;;;;;4.97;4.60;;;8.90;55.50;;;;;;21177;6634;280260;-86
2021/12/08 11:05:25;;;;;;;4.40;4.20;;;9.00;55.50;;;;;;21196;6630;300939;-84
2021/12/08 11:08:07;;;;;;;4.30;4.00;;;9.00;55.70;;;;;;21417;6630;67121;-85
2021/12/08 11:10:32;;;;;;;4.80;4.50;;;8.70;55.90;;;;;;21199;6634;271255;-86
2021/12/08 11:13:02;;;;;;;4.07;3.78;;;8.50;56.50;;;;;;21404;6630;67515;-88
2021/12/08 11:15:29;;;;;;;4.57;4.27;;;8.50;56.50;;;;;;21383;6634;67071;-88
2021/12/08 11:18:10;;;;;;;4.60;4.20;;;8.20;57.20;;;;;;21379;6645;71657;-88
2021/12/08 11:20:50;;;;;;;3.37;3.17;;;7.90;58.00;;;;;;20546;6645;66799;-86
2021/12/08 11:23:28;;;;;;;4.03;3.83;;;7.70;58.50;;;;;;21442;6645;66835;-87
2021/12/08 11:25:46;;;;;;;4.50;4.20;;;7.50;59.00;;;;;;21324;6645;68891;-89
2021/12/08 11:28:24;;;;;;;4.60;4.30;;;7.30;59.10;;;;;;21202;6637;274776;-86
2021/12/08 11:30:52;;;;;;;4.20;3.87;;;7.40;58.60;;;;;;21408;6637;68804;-86
2021/12/08 11:33:21;;;;;;;4.50;4.10;;;7.40;58.30;;;;;;21414;6635;70122;-88
2021/12/08 11:35:48;;;;;;;4.87;4.60;;;7.20;58.90;;;;;;21193;6635;295310;-86
2021/12/08 11:38:16;;;;;;;3.87;3.67;;;7.40;58.90;;;;;;21389;6634;66194;-85
2021/12/08 11:40:43;;;;;;;4.10;3.90;;;7.40;59.00;;;;;;21158;6635;303615;-83
2021/12/08 11:43:14;;;;;;;3.70;3.50;;;7.60;59.40;;;;;;21410;6635;70357;-83
2021/12/08 11:45:43;;;;;;;3.17;3.03;;;7.60;59.30;;;;;;21397;6635;69236;-84
2021/12/08 11:48:27;;;;;;;4.00;3.70;;;7.50;59.70;;;;;;21183;6635;273826;-84
2021/12/08 11:51:11;;;;;;;3.80;3.50;;;7.60;59.70;;;;;;21399;6635;66694;-84
2021/12/08 11:53:40;;;;;;;3.73;3.50;;;7.60;59.30;;;;;;21392;6635;66173;-85
2021/12/08 11:56:08;;;;;;;3.83;3.63;;;7.50;59.80;;;;;;21189;6635;300913;-84
2021/12/08 11:58:39;;;;;;;3.83;3.63;;;7.60;59.50;;;;;;21370;6635;66567;-87
2021/12/08 12:01:05;;;;;;;3.53;3.33;;;7.70;59.70;;;;;;21361;6635;66186;-85
2021/12/08 12:03:32;;;;;;;3.40;3.30;;;7.50;59.90;;;;;;21412;6635;72072;-84
2021/12/08 12:06:00;;;;;;;4.00;3.80;;;7.30;60.20;;;;;;21176;6635;303491;-85
2021/12/08 12:08:28;;;;;;;3.60;3.40;;;7.50;60.40;;;;;;21419;6635;67282;-85
2021/12/08 12:10:56;;;;;;;3.93;3.73;;;7.60;60.10;;;;;;21407;6635;66240;-85
2021/12/08 12:13:25;;;;;;;4.30;4.10;;;7.40;60.20;;;;;;21180;6635;303741;-86
2021/12/08 12:15:52;;;;;;;3.60;3.40;;;7.60;60.10;;;;;;21379;6635;66194;-87
2021/12/08 12:18:21;;;;;;;3.77;3.57;;;7.40;59.90;;;;;;21360;6635;66833;-87
2021/12/08 12:20:49;;;;;;;4.03;3.77;;;7.40;59.90;;;;;;21166;6635;293725;-86
2021/12/08 12:23:42;;;;;;;3.60;3.40;;;7.50;59.90;;;;;;21272;6635;66242;-87
2021/12/08 12:26:39;;;;;;;3.70;3.50;;;7.50;59.70;;;;;;21138;6635;272240;-87
2021/12/08 12:29:31;;;;;;;3.57;3.37;;;7.70;59.20;;;;;;21351;6635;67053;-87
2021/12/08 12:32:10;;;;;;;3.87;3.67;;;7.60;59.00;;;;;;21150;6635;301318;-88
2021/12/08 12:34:41;;;;;;;3.70;3.50;;;7.70;58.90;;;;;;21164;6635;277606;-87
2021/12/08 12:37:15;;;;;;;4.00;3.80;;;8.00;58.40;;;;;;21390;6635;66827;-88
2021/12/08 12:39:53;;;;;;;33.33;6.00;;;7.90;58.10;;;;;;21230;6635;305434;-89
2021/12/08 12:42:21;;;;;;;20.23;7.27;;;7.90;58.00;;;;;;21375;6635;67705;-91
2021/12/08 12:45:02;;;;;;;25.87;16.63;;;7.80;58.10;;;;;;21380;6635;70357;-87
2021/12/08 12:47:31;;;;;;;5.27;4.87;;;7.60;58.70;;;;;;21179;6635;272317;-86
2021/12/08 12:50:18;;;;;;;4.68;4.37;;;7.70;58.50;;;;;;21182;6634;273883;-86
2021/12/08 12:52:55;;;;;;;3.93;3.67;;;8.00;58.00;;;;;;21179;6635;329713;-87
2021/12/08 12:55:38;;;;;;;3.50;3.20;;;8.20;57.30;;;;;;21300;6635;66625;-87
2021/12/08 12:58:04;;;;;;;11.67;5.60;;;8.10;57.50;;;;;;21343;6635;66861;-87
2021/12/08 13:00:33;;;;;;;3.87;3.50;;;7.80;58.10;;;;;;21369;6635;69914;-87
2021/12/08 13:03:01;;;;;;;5.17;3.30;;;7.60;58.70;;;;;;21392;6635;66693;-86
2021/12/08 13:05:45;;;;;;;4.40;3.93;;;7.40;59.10;;;;;;21237;6635;307793;-88
2021/12/08 13:08:12;;;;;;;3.97;3.67;;;7.50;59.20;;;;;;21387;6635;71896;-87
2021/12/08 13:10:40;;;;;;;3.53;3.23;;;7.50;59.30;;;;;;21395;6635;67112;-86
2021/12/08 13:13:12;;;;;;;3.50;3.27;;;7.20;60.10;;;;;;21406;6635;66178;-86
2021/12/08 13:15:40;;;;;;;11.97;4.53;;;7.20;60.10;;;;;;21416;6635;66690;-86
2021/12/08 13:18:16;;;;;;;6.97;6.37;;;7.10;60.60;;;;;;21346;6635;66194;-86
2021/12/08 13:20:44;;;;;;;6.17;5.53;;;7.00;60.80;;;;;;21241;6692;69182;-85
2021/12/08 13:23:21;;;;;;;9.53;8.10;;;6.90;60.80;;;;;;21249;6692;67544;-84
2021/12/08 13:28:24;;;;;;;11.53;8.83;;;6.80;61.20;;;;;;21261;6692;66653;-84
2021/12/08 13:31:14;;;;;;;9.37;8.40;;;6.70;61.20;;;;;;21214;6692;66976;-84
2021/12/08 13:33:40;;;;;;;7.17;6.67;;;6.70;61.30;;;;;;21220;6692;66527;-85
2021/12/08 13:36:31;;;;;;;7.53;6.93;;;6.60;61.40;;;;;;21038;6692;307507;-85
2021/12/08 13:39:00;;;;;;;7.93;7.33;;;6.80;61.20;;;;;;21216;6692;67536;-84
2021/12/08 13:41:28;;;;;;;9.87;9.07;;;7.00;60.90;;;;;;21254;6692;71452;-84
2021/12/08 13:43:57;;;;;;;8.80;8.20;;;6.90;61.20;;;;;;21012;6692;305574;-84
2021/12/08 13:46:41;;;;;;;7.70;7.00;;;7.10;61.10;;;;;;21006;6692;273890;-84
2021/12/08 13:49:15;;;;;;;10.90;10.00;;;7.50;60.20;;;;;;20997;6692;332758;-86
2021/12/08 13:51:43;;;;;;;10.60;9.60;;;7.90;58.30;;;;;;21002;6692;276441;-83
2021/12/08 13:54:25;;;;;;;7.97;7.47;;;8.20;57.70;;;;;;21177;6692;68982;-83
2021/12/08 13:56:53;;;;;;;6.73;6.33;;;8.00;57.70;;;;;;21164;6692;66964;-84
2021/12/08 13:59:55;;;;;;;7.83;7.33;;;7.70;58.40;;;;;;21001;6692;306924;-83
2021/12/08 14:02:31;;;;;;;8.57;8.05;;;7.70;58.50;;;;;;20991;6690;307873;-83
2021/12/08 14:05:04;;;;;;;11.63;10.57;;;8.10;58.00;;;;;;21196;6691;67806;-83
2021/12/08 14:07:32;;;;;;;8.70;8.00;;;7.90;57.90;;;;;;21094;6691;66528;-83
2021/12/08 14:10:02;;;;;;;7.23;6.73;;;7.70;58.50;;;;;;21229;6691;67195;-81